Time;durP1;ratioP1;P1;durP2;ratioP2;P2;SDS_P1;SDS_P2;PMS_P1;PMS_P2;Temp;Humidity;BMP_temperature;BMP_pressure;BME280_temperature;BME280_humidity;BME280_pressure;Samples;Min_cycle;Max_cycle;Signal;HPM_P1;HPM_P2
2022/05/02 00:00:09;;;;;;;31.42;26.95;;;9.00;79.30;;;7.34;85.03;96141.50;4821692;28;20628;-65
2022/05/02 00:02:36;;;;;;;37.33;28.55;;;8.90;79.40;;;7.32;85.00;96140.84;4843936;28;20467;-65
2022/05/02 00:05:03;;;;;;;31.75;27.15;;;8.90;79.20;;;7.26;85.36;96133.66;4840016;28;20493;-65
2022/05/02 00:07:29;;;;;;;34.05;27.70;;;8.80;79.90;;;7.23;85.31;96133.16;4838983;28;20426;-65
2022/05/02 00:09:56;;;;;;;32.65;26.67;;;8.80;79.60;;;7.22;85.26;96139.38;4831790;28;20580;-64
2022/05/02 00:12:22;;;;;;;31.65;26.02;;;8.80;79.30;;;7.18;85.46;96128.44;4847668;28;20513;-65
2022/05/02 00:14:48;;;;;;;29.45;24.52;;;8.80;79.20;;;7.14;85.06;96124.53;4862907;28;20210;-65
2022/05/02 00:17:15;;;;;;;28.23;24.00;;;8.70;78.90;;;7.11;84.81;96119.63;4845093;28;20386;-64
2022/05/02 00:19:42;;;;;;;29.67;24.67;;;8.70;78.80;;;7.05;84.47;96125.53;4875273;28;20352;-65
2022/05/02 00:22:08;;;;;;;30.75;24.33;;;8.60;78.80;;;7.00;85.37;96112.94;4842269;28;20441;-64
2022/05/02 00:24:35;;;;;;;30.17;24.52;;;8.60;78.80;;;7.00;84.80;96112.13;4809863;29;20334;-64
2022/05/02 00:27:01;;;;;;;31.38;24.27;;;8.60;78.80;;;6.95;84.68;96114.44;4810860;28;20489;-64
2022/05/02 00:29:27;;;;;;;27.98;22.90;;;8.60;78.70;;;6.93;85.00;96117.22;4828585;28;20370;-64
2022/05/02 00:31:53;;;;;;;30.00;24.10;;;8.50;78.70;;;6.92;84.62;96112.16;4808880;28;20417;-65
2022/05/02 00:34:19;;;;;;;29.08;24.17;;;8.50;78.70;;;6.88;84.80;96111.66;4826156;28;20390;-65
2022/05/02 00:36:45;;;;;;;27.63;22.70;;;8.50;79.10;;;6.87;84.76;96111.84;4832579;28;20449;-65
2022/05/02 00:39:11;;;;;;;27.40;22.05;;;8.50;79.00;;;6.84;85.10;96112.16;4824539;29;20277;-65
2022/05/02 00:41:37;;;;;;;28.10;23.08;;;8.50;79.00;;;6.80;84.79;96106.47;4808275;28;20443;-64
2022/05/02 00:44:04;;;;;;;27.70;22.13;;;8.40;79.10;;;6.80;85.56;96108.25;4842065;28;20298;-64
2022/05/02 00:46:30;;;;;;;28.88;22.45;;;8.40;78.90;;;6.76;84.86;96100.72;4843616;28;20348;-64
2022/05/02 00:48:56;;;;;;;28.38;22.42;;;8.40;79.10;;;6.74;85.25;96101.88;4843964;28;20448;-64
2022/05/02 00:51:22;;;;;;;30.75;24.58;;;8.40;79.40;;;6.72;85.45;96104.66;4846827;28;20354;-65
2022/05/02 00:53:51;;;;;;;29.23;23.73;;;8.30;79.80;;;6.70;86.18;96106.63;4858311;28;20393;-65
2022/05/02 00:56:17;;;;;;;29.08;23.60;;;8.30;79.90;;;6.68;86.48;96108.56;4804993;28;20318;-65
2022/05/02 00:58:43;;;;;;;28.90;23.52;;;8.30;79.70;;;6.64;85.84;96107.28;4813029;29;20413;-64
2022/05/02 01:01:09;;;;;;;31.92;24.50;;;8.20;79.20;;;6.61;85.04;96107.63;4840724;28;20374;-64
2022/05/02 01:03:35;;;;;;;29.15;24.45;;;8.20;79.00;;;6.57;85.43;96101.09;4809170;28;20367;-63
2022/05/02 01:08:47;;;;;;;31.98;26.48;;;8.10;79.60;;;6.52;85.27;96098.13;4850125;28;20537;-64
2022/05/02 01:11:13;;;;;;;36.75;28.73;;;8.10;80.00;;;6.49;86.24;96098.44;4827319;28;20302;-63
2022/05/02 01:13:43;;;;;;;41.58;32.28;;;8.10;80.50;;;6.49;86.16;96102.88;4831029;28;20530;-63
2022/05/02 01:16:19;;;;;;;41.20;31.43;;;8.10;80.80;;;6.45;87.97;96099.75;4841786;28;20741;-63
2022/05/02 01:18:47;;;;;;;40.22;33.15;;;8.10;81.40;;;6.46;87.58;96098.78;4842267;28;20740;-63
2022/05/02 01:21:16;;;;;;;41.92;32.75;;;8.10;81.40;;;6.45;87.29;96092.75;4841632;28;20302;-63
2022/05/02 01:23:48;;;;;;;41.35;32.60;;;8.10;81.40;;;6.47;88.42;96089.97;4839203;28;20351;-64
2022/05/02 01:26:15;;;;;;;39.42;31.02;;;8.10;81.10;;;6.46;87.07;96083.09;4824275;28;20495;-63
2022/05/02 01:28:48;;;;;;;39.45;30.75;;;8.10;80.50;;;6.42;86.77;96081.81;4820656;28;20209;-64
2022/05/02 01:31:15;;;;;;;36.67;29.25;;;8.10;80.20;;;6.39;86.89;96082.13;4822764;28;20397;-63
2022/05/02 01:33:41;;;;;;;37.88;29.20;;;8.00;80.00;;;6.36;86.69;96087.69;4815727;28;20286;-63
2022/05/02 01:36:08;;;;;;;32.63;25.98;;;8.00;79.90;;;6.31;86.24;96079.50;4832753;28;20564;-63
2022/05/02 01:38:35;;;;;;;31.58;24.02;;;7.90;79.30;;;6.27;85.88;96078.19;4827856;28;20234;-63
2022/05/02 01:41:03;;;;;;;28.88;22.52;;;7.90;79.30;;;6.22;85.25;96072.66;4846843;28;20437;-64
2022/05/02 01:43:31;;;;;;;28.40;22.08;;;7.90;79.00;;;6.18;86.23;96073.97;4815704;29;20194;-65
2022/05/02 01:45:58;;;;;;;25.63;22.30;;;7.80;79.10;;;6.13;85.22;96070.03;4807565;28;20749;-64
2022/05/02 01:48:24;;;;;;;25.73;20.85;;;7.70;79.30;;;6.08;85.07;96074.09;4831897;28;20311;-64
2022/05/02 01:50:51;;;;;;;27.75;21.08;;;7.60;79.50;;;6.02;86.06;96072.97;4830236;28;20339;-64
2022/05/02 01:53:17;;;;;;;25.33;20.38;;;7.60;79.40;;;5.97;86.03;96067.41;4830250;28;20645;-64
2022/05/02 01:55:43;;;;;;;24.42;21.50;;;7.60;79.30;;;5.96;86.13;96076.22;4829658;28;20530;-65
2022/05/02 01:58:09;;;;;;;26.65;21.08;;;7.60;79.60;;;5.92;85.43;96068.88;4826557;28;20528;-64
2022/05/02 02:00:35;;;;;;;24.08;20.75;;;7.60;79.80;;;5.91;86.14;96070.66;4861673;28;20315;-65
2022/05/02 02:03:01;;;;;;;25.52;21.02;;;7.60;79.50;;;5.89;85.76;96067.38;4864526;28;20443;-64
2022/05/02 02:08:12;;;;;;;25.60;21.25;;;7.50;80.00;;;5.87;85.87;96060.66;4860920;28;20743;-65
2022/05/02 02:10:38;;;;;;;25.33;20.80;;;7.50;80.00;;;5.85;86.37;96058.22;4861432;28;20629;-65
2022/05/02 02:13:05;;;;;;;26.77;21.92;;;7.50;79.60;;;5.84;86.61;96056.56;4845286;28;20357;-64
2022/05/02 02:15:31;;;;;;;26.77;21.58;;;7.50;79.70;;;5.83;85.82;96054.94;4831831;28;20664;-63
2022/05/02 02:17:57;;;;;;;28.20;22.83;;;7.60;79.90;;;5.83;86.85;96047.09;4831270;28;20214;-66
2022/05/02 02:20:23;;;;;;;28.25;23.17;;;7.50;80.00;;;5.82;86.12;96058.53;4839237;28;20206;-63
2022/05/02 02:22:49;;;;;;;47.80;35.42;;;7.50;79.90;;;5.80;86.61;96056.09;4836916;28;20374;-64
2022/05/02 02:25:15;;;;;;;78.90;54.15;;;7.50;80.50;;;5.80;87.00;96057.88;4798412;29;20332;-64
2022/05/02 02:27:41;;;;;;;52.60;37.65;;;7.60;81.20;;;5.83;87.83;96060.97;4857497;28;20346;-64
2022/05/02 02:30:14;;;;;;;35.22;28.42;;;7.60;81.70;;;5.84;88.74;96061.78;4816325;28;20226;-63
2022/05/02 02:32:41;;;;;;;33.10;26.67;;;7.60;81.70;;;5.84;88.27;96061.78;4840691;28;20231;-64
2022/05/02 02:35:08;;;;;;;33.78;26.27;;;7.50;81.40;;;5.84;88.29;96061.78;4819980;29;20241;-64
2022/05/02 02:37:34;;;;;;;41.55;33.65;;;7.50;81.10;;;5.83;87.45;96057.56;4819416;28;20331;-67
2022/05/02 02:40:00;;;;;;;36.85;28.25;;;7.50;80.90;;;5.82;87.15;96063.75;4827328;28;20227;-67
2022/05/02 02:42:27;;;;;;;31.10;24.58;;;7.50;80.50;;;5.81;87.65;96052.50;4861036;28;20304;-65
2022/05/02 02:44:53;;;;;;;33.92;24.73;;;7.50;80.40;;;5.80;87.42;96050.84;4853899;28;20365;-66
2022/05/02 02:47:22;;;;;;;28.60;22.92;;;7.50;80.10;;;5.79;87.63;96053.63;4846494;28;20305;-64
2022/05/02 02:49:48;;;;;;;29.67;24.15;;;7.50;79.90;;;5.76;86.63;96048.75;4848726;28;21651;-65
2022/05/02 02:52:14;;;;;;;30.83;24.67;;;7.40;79.90;;;5.74;86.51;96055.91;4846651;28;20353;-65
2022/05/02 02:54:40;;;;;;;34.78;25.45;;;7.40;80.00;;;5.74;86.91;96055.91;4861721;28;20388;-65
2022/05/02 02:57:07;;;;;;;32.88;24.65;;;7.40;80.00;;;5.70;87.08;96054.59;4850497;28;20912;-64
2022/05/02 02:59:33;;;;;;;71.90;52.35;;;7.40;80.20;;;5.70;87.44;96060.63;4845820;28;20880;-65
2022/05/02 03:02:02;;;;;;;53.38;41.55;;;7.50;80.60;;;5.71;88.66;96051.00;4820985;28;20318;-65
2022/05/02 03:07:12;;;;;;;56.20;41.65;;;7.40;81.00;;;5.73;87.83;96052.50;4816601;29;20390;-64
2022/05/02 03:09:38;;;;;;;62.75;45.92;;;7.50;81.30;;;5.75;88.47;96052.31;4843031;28;20741;-64
2022/05/02 03:12:05;;;;;;;128.48;96.07;;;7.50;81.40;;;5.79;89.25;96053.63;4839237;28;20345;-64
2022/05/02 03:14:31;;;;;;;126.07;92.28;;;7.60;81.60;;;5.81;89.19;96051.69;4843759;28;20393;-64
2022/05/02 03:16:57;;;;;;;41.38;33.35;;;7.60;81.80;;;5.82;88.42;96048.09;4844294;28;20374;-66
2022/05/02 03:19:23;;;;;;;35.78;29.10;;;7.50;81.30;;;5.80;89.08;96047.44;4839230;28;20354;-65
2022/05/02 03:21:49;;;;;;;33.38;26.35;;;7.50;81.00;;;5.80;88.17;96050.03;4844717;28;20366;-66
2022/05/02 03:24:15;;;;;;;34.78;27.20;;;7.50;81.00;;;5.79;88.92;96048.41;4832784;28;20577;-63
2022/05/02 03:26:41;;;;;;;35.22;27.50;;;7.50;81.00;;;5.79;89.15;96048.41;4852138;28;20370;-64
2022/05/02 03:29:07;;;;;;;32.42;26.40;;;7.50;81.10;;;5.78;88.32;96046.78;4825620;28;20362;-64
2022/05/02 03:31:33;;;;;;;50.10;40.17;;;7.50;80.90;;;5.79;88.90;96058.84;4810400;29;20309;-67
2022/05/02 03:33:59;;;;;;;74.93;55.00;;;7.50;81.00;;;5.81;88.97;96054.28;4842011;28;20353;-65
2022/05/02 03:36:25;;;;;;;58.00;43.60;;;7.60;80.90;;;5.81;88.69;96055.09;4809423;29;20036;-64
2022/05/02 03:38:51;;;;;;;41.90;33.00;;;7.60;80.90;;;5.82;89.21;96053.31;4831656;28;20584;-65
2022/05/02 03:41:18;;;;;;;40.85;32.97;;;7.60;80.60;;;5.82;88.35;96054.13;4829293;28;20473;-65
2022/05/02 03:43:44;;;;;;;35.15;28.95;;;7.60;80.10;;;5.80;87.91;96050.03;4830293;28;20294;-65
2022/05/02 03:46:10;;;;;;;32.03;26.70;;;7.50;80.40;;;5.78;88.34;96060.66;4829349;28;20372;-64
2022/05/02 03:48:36;;;;;;;34.20;27.42;;;7.50;80.50;;;5.79;88.68;96053.63;4850184;28;20260;-66
2022/05/02 03:51:03;;;;;;;35.80;28.52;;;7.50;80.50;;;5.77;88.19;96055.59;4847719;28;20581;-67
2022/05/02 03:53:28;;;;;;;39.00;27.92;;;7.50;80.70;;;5.74;88.25;96051.50;4883770;28;20540;-67
2022/05/02 03:55:54;;;;;;;36.20;27.80;;;7.50;80.70;;;5.72;88.38;96047.44;4930471;28;20074;-66
2022/05/02 03:58:20;;;;;;;35.65;26.58;;;7.50;80.70;;;5.70;88.38;96047.59;4976653;28;20030;-64
2022/05/02 04:00:46;;;;;;;36.25;28.73;;;7.50;80.60;;;5.72;88.75;96052.66;4953169;28;20181;-63
2022/05/02 04:03:13;;;;;;;34.17;28.27;;;7.50;80.50;;;5.69;88.46;96047.75;4970573;28;20046;-63
2022/05/02 04:05:38;;;;;;;35.70;29.02;;;7.40;80.70;;;5.66;88.98;96038.44;4949146;28;20043;-64
2022/05/02 04:08:05;;;;;;;38.40;26.92;;;7.40;80.90;;;5.67;88.54;96045.31;4932956;28;20122;-64
2022/05/02 04:10:30;;;;;;;36.38;26.95;;;7.40;80.60;;;5.68;88.71;96051.34;4966011;28;20031;-63
2022/05/02 04:12:56;;;;;;;32.70;25.85;;;7.40;80.50;;;5.68;89.13;96048.72;4949911;28;20094;-65
2022/05/02 04:15:22;;;;;;;34.40;25.58;;;7.50;80.40;;;5.67;88.08;96054.94;4975838;28;20573;-64
2022/05/02 04:17:48;;;;;;;31.10;24.58;;;7.40;80.30;;;5.68;88.54;96053.94;4944259;28;20879;-64
2022/05/02 04:20:13;;;;;;;33.30;25.83;;;7.50;80.20;;;5.69;88.15;96060.81;4933763;28;20070;-64
2022/05/02 04:22:40;;;;;;;36.15;26.05;;;7.50;80.10;;;5.70;88.15;96049.38;4959544;28;20090;-64
2022/05/02 04:25:06;;;;;;;33.20;25.20;;;7.50;80.10;;;5.69;88.38;96042.53;4923373;28;20077;-64
2022/05/02 04:27:32;;;;;;;30.50;24.55;;;7.50;80.10;;;5.71;88.09;96051.84;4932792;28;20208;-64
2022/05/02 04:29:57;;;;;;;31.70;24.02;;;7.60;80.10;;;5.73;88.81;96046.44;4948915;28;20047;-64
2022/05/02 04:32:23;;;;;;;39.40;30.02;;;7.60;80.10;;;5.76;89.19;96048.75;4965717;28;20098;-64
2022/05/02 04:34:49;;;;;;;46.50;36.95;;;7.60;80.20;;;5.78;88.90;96041.56;4948657;28;20126;-64
2022/05/02 04:37:15;;;;;;;37.15;28.35;;;7.70;80.40;;;5.81;88.71;96051.69;4944437;28;20118;-65
2022/05/02 04:39:40;;;;;;;44.47;36.15;;;7.70;80.30;;;5.82;88.91;96053.31;4943499;28;20038;-65
2022/05/02 04:42:07;;;;;;;36.00;29.02;;;7.70;80.40;;;5.85;88.33;96052.97;4948951;28;20489;-65
2022/05/02 04:44:34;;;;;;;31.02;25.08;;;7.80;80.10;;;5.88;89.26;96049.22;4948265;28;20559;-65
2022/05/02 04:47:00;;;;;;;30.83;25.42;;;7.80;80.00;;;5.89;88.57;96053.50;4945144;28;20039;-65
2022/05/02 04:49:26;;;;;;;31.70;25.48;;;7.80;79.90;;;5.91;88.51;96047.19;4932933;28;20035;-65
2022/05/02 04:51:51;;;;;;;31.52;25.23;;;7.80;79.70;;;5.93;89.25;96047.81;4932897;28;20569;-65
2022/05/02 04:54:17;;;;;;;33.03;26.90;;;7.80;79.90;;;5.97;89.31;96046.53;4945077;28;20130;-64
2022/05/02 04:56:43;;;;;;;35.35;27.50;;;7.90;80.20;;;6.02;89.68;96049.47;4897223;29;20187;-65
2022/05/02 04:59:08;;;;;;;40.15;28.48;;;8.10;80.40;;;6.09;89.49;96057.44;4945568;28;20209;-65
2022/05/02 05:01:34;;;;;;;37.42;28.17;;;8.10;80.00;;;6.12;89.02;96055.34;4945466;28;20042;-65
2022/05/02 05:04:00;;;;;;;37.88;28.40;;;8.10;80.00;;;6.17;89.77;96048.81;4912916;28;20557;-66
2022/05/02 05:06:26;;;;;;;38.28;28.08;;;8.20;80.10;;;6.23;89.77;96048.97;4944719;28;20055;-65
2022/05/02 05:08:52;;;;;;;36.65;28.65;;;8.30;80.60;;;6.30;90.49;96042.13;4896999;29;20154;-65
2022/05/02 05:11:47;;;;;;;40.20;29.60;;;8.40;80.30;;;6.37;91.48;96040.50;4898390;29;20043;-65
2022/05/02 05:18:20;;;;;;;35.85;29.27;;;8.50;80.30;;;6.48;90.85;96036.72;4943765;28;20053;-65
2022/05/02 05:20:59;;;;;;;42.28;30.08;;;8.50;80.00;;;6.51;90.90;96033.78;4946328;28;20094;-65
2022/05/02 05:24:10;;;;;;;36.95;27.65;;;8.60;79.90;;;6.60;90.62;96032.00;4945675;28;20070;-65
2022/05/02 05:26:52;;;;;;;30.00;24.45;;;8.70;79.10;;;6.63;90.04;96027.25;4963808;28;20418;-65
2022/05/02 05:29:48;;;;;;;29.75;24.50;;;8.70;78.50;;;6.71;90.14;96029.81;4945694;28;20062;-65
2022/05/02 05:32:31;;;;;;;30.70;25.23;;;8.80;78.20;;;6.75;89.30;96025.88;4960697;28;20042;-66
2022/05/02 05:35:09;;;;;;;31.52;24.52;;;8.90;78.10;;;6.81;89.49;96034.06;4944168;28;20533;-65
2022/05/02 05:37:55;;;;;;;29.02;25.15;;;8.90;77.90;;;6.87;89.36;96028.16;4944471;28;20405;-66
2022/05/02 05:40:36;;;;;;;30.60;24.80;;;9.00;77.90;;;6.94;89.61;96021.28;4940977;28;20080;-65
2022/05/02 05:43:22;;;;;;;29.92;24.02;;;9.10;77.80;;;7.01;88.92;96023.03;4938509;28;20035;-65
2022/05/02 05:46:25;;;;;;;29.60;23.35;;;9.30;77.30;;;7.10;88.74;96021.22;4944240;28;20055;-66
2022/05/02 05:49:10;;;;;;;26.98;22.50;;;9.40;76.50;;;7.20;88.58;96024.44;4964154;28;20031;-65
2022/05/02 05:51:56;;;;;;;27.85;23.52;;;9.60;76.50;;;7.31;88.43;96018.03;4967500;28;20042;-65
2022/05/02 05:54:55;;;;;;;26.85;22.95;;;9.60;76.10;;;7.41;88.67;96023.06;4932317;28;20035;-65
2022/05/02 05:57:49;;;;;;;25.65;22.73;;;9.70;76.20;;;7.49;88.03;96023.03;4950275;28;20503;-65
2022/05/02 06:00:15;;;;;;;29.30;24.83;;;9.80;76.10;;;7.53;88.01;96024.31;4947326;28;20135;-65
2022/05/02 06:03:23;;;;;;;31.08;24.60;;;9.80;75.70;;;7.61;88.33;96026.88;4948514;28;20132;-66
2022/05/02 06:05:49;;;;;;;27.80;23.65;;;9.90;76.10;;;7.73;88.11;96035.16;4948046;28;20102;-65
2022/05/02 06:08:18;;;;;;;28.00;24.98;;;10.10;75.90;;;7.82;87.90;96029.69;4932254;28;20039;-65
2022/05/02 06:10:44;;;;;;;29.73;25.25;;;10.30;75.60;;;7.96;88.10;96030.78;4937883;28;20049;-66
2022/05/02 06:13:09;;;;;;;27.23;24.33;;;10.50;75.20;;;8.11;87.73;96022.94;4935985;28;20120;-65
2022/05/02 06:18:28;;;;;;;27.00;24.23;;;11.00;73.40;;;8.46;87.09;96027.63;4948364;28;20046;-65
2022/05/02 06:20:54;;;;;;;26.35;22.65;;;11.30;73.10;;;8.66;86.81;96032.38;4940358;28;20043;-65
2022/05/02 06:23:19;;;;;;;24.80;22.20;;;11.50;72.60;;;8.85;86.91;96029.22;4936045;28;20481;-65
2022/05/02 06:25:48;;;;;;;22.67;20.38;;;11.80;72.00;;;9.04;86.33;96031.28;4936574;28;20138;-65
2022/05/02 06:28:14;;;;;;;23.23;20.80;;;12.00;71.10;;;9.25;85.63;96029.75;4948469;28;20540;-65
2022/05/02 06:30:42;;;;;;;23.10;20.60;;;12.20;69.90;;;9.44;85.22;96031.81;4931481;28;20028;-65
2022/05/02 06:33:13;;;;;;;25.40;22.75;;;12.60;68.80;;;9.65;83.57;96031.06;4948380;28;20040;-65
2022/05/02 06:36:14;;;;;;;23.92;21.35;;;12.70;68.60;;;9.88;83.03;96033.53;4947624;28;20035;-65
2022/05/02 06:38:57;;;;;;;24.67;21.77;;;13.00;68.10;;;10.10;82.98;96032.56;4946022;28;20074;-65
2022/05/02 06:42:10;;;;;;;23.65;21.23;;;13.30;67.20;;;10.33;82.93;96027.94;4949013;28;20058;-65
2022/05/02 06:44:51;;;;;;;23.30;20.92;;;13.50;67.20;;;10.56;80.85;96033.00;4946723;28;20780;-65
2022/05/02 06:47:31;;;;;;;23.75;21.25;;;13.80;66.00;;;10.75;80.70;96031.53;4948200;28;20050;-65
2022/05/02 06:49:58;;;;;;;23.70;21.13;;;14.10;65.50;;;10.95;81.83;96027.22;4956151;28;20134;-66
2022/05/02 06:52:27;;;;;;;23.52;21.10;;;14.50;64.30;;;11.18;81.43;96021.69;4931924;28;20043;-65
2022/05/02 06:55:01;;;;;;;24.08;21.20;;;14.70;63.80;;;11.40;80.16;96022.41;4947190;28;20050;-65
2022/05/02 06:57:51;;;;;;;26.60;23.90;;;15.00;63.10;;;11.62;78.10;96026.56;4947885;28;20927;-65
2022/05/02 07:00:18;;;;;;;26.58;23.77;;;15.10;62.20;;;11.79;79.17;96029.69;4943471;28;20035;-65
2022/05/02 07:03:05;;;;;;;26.58;23.85;;;15.40;62.10;;;11.96;76.41;96030.13;4931654;28;20124;-65
2022/05/02 07:06:05;;;;;;;28.83;25.38;;;15.40;61.10;;;12.07;75.90;96021.66;4962674;28;20114;-65
2022/05/02 07:08:30;;;;;;;29.07;25.43;;;15.50;60.50;;;12.23;77.43;96026.56;4965334;28;20026;-65
2022/05/02 07:11:03;;;;;;;28.58;25.50;;;15.90;60.40;;;12.46;76.82;96020.88;4947782;28;20599;-65
2022/05/02 07:14:08;;;;;;;30.25;27.05;;;16.20;60.50;;;12.77;74.92;96020.25;4946949;28;20126;-65
2022/05/02 07:16:35;;;;;;;28.83;25.30;;;16.50;59.70;;;12.96;75.96;96013.34;4934311;28;20035;-65
2022/05/02 07:19:26;;;;;;;26.83;23.98;;;16.60;58.40;;;13.18;74.85;96022.69;4934322;28;20459;-66
2022/05/02 07:22:01;;;;;;;28.55;24.98;;;16.70;59.30;;;13.33;73.99;96017.13;4947561;28;20035;-65
2022/05/02 07:24:50;;;;;;;27.50;24.55;;;16.50;59.50;;;13.50;72.95;96012.22;4932984;28;20035;-65
2022/05/02 07:27:22;;;;;;;28.45;25.58;;;16.70;59.60;;;13.64;73.18;96021.72;4919625;28;20035;-65
2022/05/02 07:29:50;;;;;;;27.05;24.25;;;16.70;59.90;;;13.77;73.47;96012.91;4947612;28;20828;-66
2022/05/02 07:32:15;;;;;;;26.85;24.25;;;16.90;59.00;;;13.93;73.16;96022.19;4947009;28;21421;-65
2022/05/02 07:34:41;;;;;;;26.60;23.88;;;17.20;58.40;;;14.14;73.83;96013.94;4945457;28;20117;-65
2022/05/02 07:37:07;;;;;;;27.48;24.42;;;17.70;57.60;;;14.34;72.69;96014.63;4930937;28;20047;-65
2022/05/02 07:39:33;;;;;;;27.15;24.27;;;18.10;56.00;;;14.57;72.35;96013.25;4946857;28;20039;-66
2022/05/02 07:42:01;;;;;;;28.02;25.23;;;18.40;55.60;;;14.77;71.79;96013.91;4946703;28;20122;-65
2022/05/02 07:44:33;;;;;;;28.08;25.27;;;18.60;55.30;;;15.00;70.21;96008.81;4945575;28;20043;-66
2022/05/02 07:47:00;;;;;;;27.23;24.45;;;18.80;54.10;;;15.19;70.36;96006.19;4921836;28;20171;-65
2022/05/02 07:49:28;;;;;;;28.67;25.67;;;19.10;54.30;;;15.41;70.62;96003.91;4958527;28;20066;-66
2022/05/02 07:51:54;;;;;;;26.50;23.80;;;19.10;54.00;;;15.57;69.22;96003.28;4962836;28;20058;-65
2022/05/02 07:54:20;;;;;;;26.95;24.25;;;19.40;53.40;;;15.78;69.02;95994.91;4929810;28;20058;-65
2022/05/02 07:56:48;;;;;;;28.23;25.25;;;19.70;52.80;;;16.04;69.11;95992.91;4946544;28;20562;-65
2022/05/02 07:59:19;;;;;;;26.30;23.60;;;20.10;52.20;;;16.34;67.03;95995.56;4949496;28;20047;-66
2022/05/02 08:01:45;;;;;;;27.52;24.70;;;20.40;50.70;;;16.58;67.21;95983.16;4933702;28;20513;-66
2022/05/02 08:04:12;;;;;;;24.67;22.25;;;20.60;49.80;;;16.85;66.76;95984.34;4930962;28;20047;-66
2022/05/02 08:07:00;;;;;;;27.65;24.85;;;20.90;50.10;;;17.09;62.11;95985.94;4899350;29;20126;-66
2022/05/02 08:09:41;;;;;;;25.73;22.92;;;20.90;48.70;;;17.24;63.08;95984.69;4930274;28;20696;-66
2022/05/02 08:12:54;;;;;;;25.00;22.40;;;20.90;49.10;;;17.46;60.72;95985.69;4930391;28;20047;-66
2022/05/02 08:15:31;;;;;;;23.70;21.27;;;21.30;47.40;;;17.69;62.55;95990.16;4948415;28;20461;-66
2022/05/02 08:18:33;;;;;;;23.40;21.15;;;21.60;48.00;;;18.01;60.97;95988.66;4946169;28;20122;-66
2022/05/02 08:21:09;;;;;;;22.88;20.65;;;22.10;47.00;;;18.30;62.69;95986.75;4946544;28;20063;-66
2022/05/02 08:27:17;;;;;;;23.05;20.58;;;22.80;45.80;;;18.89;57.05;95976.56;4945282;28;20058;-66
2022/05/02 08:30:08;;;;;;;23.27;21.02;;;23.10;43.80;;;19.16;57.17;95976.69;4962399;28;20611;-66
2022/05/02 08:33:06;;;;;;;22.98;20.27;;;23.40;43.40;;;19.23;55.56;95982.63;4965225;28;20035;-65
2022/05/02 08:35:50;;;;;;;21.70;19.52;;;22.80;44.00;;;19.28;57.79;95987.25;4939807;28;20459;-66
2022/05/02 08:38:50;;;;;;;20.05;18.05;;;22.70;45.20;;;19.20;54.95;95985.78;4945767;28;24402;-66
2022/05/02 08:41:28;;;;;;;21.23;19.10;;;22.30;44.50;;;19.22;55.91;95977.53;4946010;28;20507;-66
2022/05/02 08:44:43;;;;;;;20.02;18.05;;;22.60;45.10;;;19.41;56.31;95980.72;4960910;28;20660;-66
2022/05/02 08:47:39;;;;;;;20.25;18.13;;;23.00;44.80;;;19.70;53.65;95973.41;4937240;28;20409;-66
2022/05/02 08:50:42;;;;;;;19.08;17.17;;;23.60;41.90;;;19.89;52.89;95970.13;4961418;28;20086;-65
2022/05/02 08:53:35;;;;;;;16.67;14.98;;;23.80;41.30;;;19.99;51.23;95968.66;4964626;28;20043;-66
2022/05/02 08:56:32;;;;;;;18.58;16.63;;;23.60;39.80;;;20.02;52.04;95976.97;4956721;28;20034;-65
2022/05/02 08:59:23;;;;;;;17.55;15.90;;;23.60;41.70;;;20.24;52.46;95957.41;4958522;28;20146;-65
2022/05/02 09:02:29;;;;;;;16.23;14.63;;;24.20;41.70;;;20.59;50.08;95959.59;4945574;28;20050;-66
2022/05/02 09:05:22;;;;;;;14.57;13.18;;;24.90;39.30;;;20.91;50.36;95956.91;4943726;28;20039;-66
2022/05/02 09:08:25;;;;;;;16.42;14.80;;;25.20;39.00;;;21.08;49.00;95962.91;4946597;28;20035;-66
2022/05/02 09:11:31;;;;;;;15.43;13.75;;;24.70;38.80;;;21.14;48.59;95961.06;4945052;28;20039;-66
2022/05/02 09:14:32;;;;;;;12.10;10.82;;;24.60;38.90;;;21.23;47.79;95968.31;4932015;28;20452;-67
2022/05/02 09:17:31;;;;;;;13.50;12.10;;;24.70;38.20;;;21.12;46.62;95964.00;4932336;29;20111;-66
2022/05/02 09:20:50;;;;;;;14.20;12.80;;;24.20;38.20;;;20.92;47.07;95958.50;4944340;28;20035;-67
2022/05/02 09:23:40;;;;;;;14.32;12.93;;;24.00;39.10;;;20.85;48.07;95971.31;4935902;28;20047;-66
2022/05/02 09:26:05;;;;;;;14.25;12.90;;;23.90;39.50;;;20.80;49.73;95967.50;4945356;28;20035;-66
2022/05/02 09:28:58;;;;;;;13.88;12.50;;;24.00;38.60;;;20.95;47.40;95958.00;4945073;28;20431;-66
2022/05/02 09:31:51;;;;;;;13.95;12.50;;;24.50;38.10;;;20.96;46.11;95965.75;4937857;29;20125;-66
2022/05/02 09:34:38;;;;;;;12.95;11.70;;;24.00;37.90;;;21.10;47.41;95961.59;4942789;28;20134;-66
2022/05/02 09:37:06;;;;;;;11.52;10.40;;;24.90;37.80;;;21.32;47.79;95958.78;4938452;28;20387;-66
2022/05/02 09:40:12;;;;;;;11.35;9.98;;;24.90;37.30;;;21.27;45.33;95961.41;4929202;29;20443;-66
2022/05/02 09:43:05;;;;;;;11.10;10.00;;;24.50;37.70;;;21.40;45.07;95960.16;4944429;28;20549;-66
2022/05/02 09:51:50;;;;;;;12.52;11.30;;;24.00;38.10;;;21.05;45.23;95958.88;4957005;28;20041;-66
2022/05/02 09:58:21;;;;;;;10.82;8.82;;;23.90;38.10;;;21.10;44.96;95947.41;4953178;28;20090;-66
2022/05/02 10:01:17;;;;;;;10.43;9.35;;;24.20;37.20;;;20.99;44.94;95953.75;4908029;29;20099;-66
2022/05/02 10:04:18;;;;;;;10.18;8.55;;;23.90;38.20;;;21.18;45.23;95952.25;4895316;29;20504;-66
2022/05/02 10:07:10;;;;;;;9.20;8.30;;;25.10;36.70;;;21.46;43.69;95942.25;4940661;28;20573;-66
2022/05/02 10:10:09;;;;;;;9.05;8.07;;;25.10;35.60;;;21.48;43.99;95932.09;4915114;28;20039;-66
2022/05/02 10:13:18;;;;;;;10.43;9.43;;;24.90;36.20;;;21.45;44.15;95932.63;4944393;28;20142;-66
2022/05/02 10:16:20;;;;;;;10.40;9.32;;;24.60;37.10;;;21.66;45.35;95929.75;4944226;28;20098;-66
2022/05/02 10:19:07;;;;;;;10.10;9.10;;;25.80;36.80;;;22.02;45.62;95924.50;4962025;28;20050;-66
2022/05/02 10:22:02;;;;;;;9.80;8.80;;;26.50;35.70;;;22.65;43.58;95916.25;4961125;28;20046;-66
2022/05/02 10:24:55;;;;;;;9.50;8.48;;;27.60;33.10;;;23.18;41.64;95925.56;4962785;28;20397;-66
2022/05/02 10:27:37;;;;;;;8.63;7.75;;;28.60;31.50;;;23.47;42.71;95923.84;4954318;28;20568;-66
2022/05/02 10:30:07;;;;;;;9.63;8.73;;;28.00;32.70;;;23.53;43.42;95921.94;4944249;28;20051;-67
2022/05/02 10:32:58;;;;;;;9.45;8.48;;;27.40;33.10;;;23.37;41.49;95918.53;4897297;29;20476;-66
2022/05/02 10:35:26;;;;;;;9.80;8.80;;;26.60;34.10;;;23.28;43.13;95919.34;4921525;29;20408;-66
2022/05/02 10:38:02;;;;;;;9.05;8.20;;;26.30;34.10;;;23.40;40.70;95914.50;4923829;29;20654;-66
2022/05/02 10:40:41;;;;;;;8.95;8.15;;;26.80;33.70;;;23.34;42.29;95918.28;4947933;28;20041;-66
2022/05/02 10:43:09;;;;;;;8.98;8.18;;;26.70;35.30;;;23.28;42.97;95919.34;4944767;28;20031;-66
2022/05/02 10:45:37;;;;;;;10.07;9.13;;;26.30;34.80;;;23.06;42.26;95917.81;4944551;28;20027;-66
2022/05/02 10:48:15;;;;;;;9.25;8.30;;;25.90;35.30;;;22.90;41.57;95921.63;4948859;28;20039;-66
2022/05/02 10:50:41;;;;;;;9.55;8.52;;;25.50;36.40;;;22.60;42.61;95920.53;4949692;28;20086;-66
2022/05/02 10:53:34;;;;;;;9.55;8.55;;;25.00;37.10;;;22.30;41.45;95917.84;4967298;28;20043;-66
2022/05/02 10:56:36;;;;;;;6.07;5.50;;;24.60;36.90;;;22.01;41.75;95915.66;4965767;28;20454;-66
2022/05/02 10:59:04;;;;;;;8.50;7.60;;;24.80;36.50;;;22.11;43.06;95916.75;4966958;28;20490;-66
2022/05/02 11:01:51;;;;;;;8.52;7.72;;;25.00;36.80;;;22.08;41.92;95901.22;4951842;28;20246;-66
2022/05/02 11:04:40;;;;;;;8.35;7.57;;;24.60;36.10;;;21.84;41.51;95904.38;4946519;28;20098;-66
2022/05/02 11:07:12;;;;;;;9.13;7.22;;;24.10;36.60;;;21.58;42.78;95902.69;4931441;28;20032;-66
2022/05/02 11:09:56;;;;;;;7.35;6.60;;;23.80;38.20;;;21.45;41.89;95898.63;4943048;28;20051;-66
2022/05/02 11:12:23;;;;;;;6.80;5.88;;;23.90;37.40;;;21.61;43.27;95900.28;4966375;28;20035;-66
2022/05/02 11:15:25;;;;;;;5.78;5.18;;;25.20;36.10;;;21.94;42.27;95907.06;4950249;28;20221;-66